SESAM ESGG-ZZZZ
Flight info
| Callsign | SESAM |
|---|---|
| Flight time | N/A |
| Altitude | |
| Route | |
| Aircraft | BE58 |
Departure
| Time | 2026-05-06 18:28 |
|---|---|
| Airport | Göteborg Landvetter Airport (ESGG) |
Arrival
| Time | N/A |
|---|---|
| Airport | ZZZZ |
| Time | Latitude | Longitude | Altitude | Speed | Heading |
|---|---|---|---|---|---|
| 2026-05-06 18:16 | 57.66535 | 12.28851 | 510 ft | 0 kts | 296° |
| 2026-05-06 18:22 | 57.66535 | 12.28850 | 510 ft | 0 kts | 296° |
| 2026-05-06 18:22 | 57.66542 | 12.28866 | 510 ft | 6 kts | 149° |
| 2026-05-06 18:22 | 57.66513 | 12.28963 | 510 ft | 11 kts | 63° |
| 2026-05-06 18:22 | 57.66585 | 12.28973 | 510 ft | 13 kts | 27° |
| 2026-05-06 18:23 | 57.66628 | 12.28895 | 511 ft | 11 kts | 291° |
| 2026-05-06 18:23 | 57.66664 | 12.28756 | 508 ft | 14 kts | 298° |
| 2026-05-06 18:23 | 57.66749 | 12.28751 | 507 ft | 12 kts | 27° |
| 2026-05-06 18:23 | 57.66778 | 12.28743 | 507 ft | 6 kts | 234° |
| 2026-05-06 18:24 | 57.66768 | 12.28721 | 507 ft | 0 kts | 234° |
| 2026-05-06 18:25 | 57.66758 | 12.28695 | 507 ft | 6 kts | 235° |
| 2026-05-06 18:25 | 57.66717 | 12.28582 | 506 ft | 14 kts | 237° |
| 2026-05-06 18:26 | 57.66653 | 12.28400 | 507 ft | 19 kts | 237° |
| 2026-05-06 18:26 | 57.66596 | 12.28271 | 506 ft | 0 kts | 215° |
| 2026-05-06 18:26 | 57.66595 | 12.28271 | 506 ft | 1 kts | 215° |
| 2026-05-06 18:26 | 57.66516 | 12.28193 | 506 ft | 27 kts | 207° |
| 2026-05-06 18:27 | 57.66228 | 12.27929 | 504 ft | 71 kts | 205° |
| 2026-05-06 18:27 | 57.65667 | 12.27429 | 534 ft | 104 kts | 203° |
| 2026-05-06 18:27 | 57.64910 | 12.26860 | 677 ft | 130 kts | 208° |
| 2026-05-06 18:27 | 57.64281 | 12.25679 | 973 ft | 132 kts | 252° |
| 2026-05-06 18:28 | 57.64400 | 12.24032 | 1198 ft | 133 kts | 309° |
| 2026-05-06 18:28 | 57.65225 | 12.23512 | 1253 ft | 130 kts | 13° |
| 2026-05-06 18:28 | 57.66017 | 12.24297 | 1331 ft | 130 kts | 28° |
| 2026-05-06 18:28 | 57.66811 | 12.25172 | 1388 ft | 130 kts | 28° |
| 2026-05-06 18:29 | 57.67588 | 12.26085 | 1386 ft | 135 kts | 27° |
| 2026-05-06 18:29 | 57.68406 | 12.26916 | 1381 ft | 130 kts | 22° |
| 2026-05-06 18:29 | 57.69240 | 12.27585 | 1282 ft | 133 kts | 17° |
| 2026-05-06 18:29 | 57.70076 | 12.28157 | 1286 ft | 124 kts | 15° |
| 2026-05-06 18:30 | 57.70864 | 12.28822 | 1198 ft | 127 kts | 23° |
| 2026-05-06 18:30 | 57.71655 | 12.29574 | 1105 ft | 130 kts | 24° |
| 2026-05-06 18:30 | 57.72472 | 12.30355 | 1065 ft | 131 kts | 23° |
| 2026-05-06 18:30 | 57.73279 | 12.31169 | 1004 ft | 132 kts | 25° |
| 2026-05-06 18:31 | 57.74069 | 12.31974 | 1025 ft | 127 kts | 24° |
| 2026-05-06 18:31 | 57.74856 | 12.32772 | 972 ft | 132 kts | 27° |
| 2026-05-06 18:31 | 57.75411 | 12.34099 | 1031 ft | 135 kts | 76° |
| 2026-05-06 18:31 | 57.75160 | 12.35752 | 998 ft | 139 kts | 137° |
| 2026-05-06 18:32 | 57.74270 | 12.36121 | 932 ft | 138 kts | 204° |
| 2026-05-06 18:32 | 57.73452 | 12.35211 | 870 ft | 136 kts | 219° |
| 2026-05-06 18:32 | 57.72709 | 12.34093 | 804 ft | 135 kts | 222° |
| 2026-05-06 18:32 | 57.71950 | 12.33148 | 755 ft | 131 kts | 211° |
| 2026-05-06 18:33 | 57.71146 | 12.32447 | 710 ft | 122 kts | 210° |
| 2026-05-06 18:33 | 57.70405 | 12.31787 | 729 ft | 112 kts | 212° |
| 2026-05-06 18:33 | 57.69729 | 12.31160 | 716 ft | 107 kts | 210° |
| 2026-05-06 18:33 | 57.69065 | 12.30531 | 686 ft | 107 kts | 211° |
| 2026-05-06 18:34 | 57.68395 | 12.29931 | 690 ft | 106 kts | 209° |
| 2026-05-06 18:34 | 57.67732 | 12.29318 | 603 ft | 107 kts | 210° |
| 2026-05-06 18:34 | 57.67078 | 12.28722 | 516 ft | 100 kts | 210° |
| 2026-05-06 18:34 | 57.66471 | 12.28145 | 506 ft | 100 kts | 206° |
| 2026-05-06 18:35 | 57.65732 | 12.27500 | 557 ft | 133 kts | 207° |
| 2026-05-06 18:35 | 57.64854 | 12.26695 | 734 ft | 142 kts | 208° |
| 2026-05-06 18:35 | 57.64135 | 12.25539 | 1014 ft | 134 kts | 248° |
| 2026-05-06 18:35 | 57.64164 | 12.23856 | 1183 ft | 136 kts | 302° |
| 2026-05-06 18:36 | 57.64934 | 12.23022 | 1333 ft | 138 kts | 1° |
| 2026-05-06 18:36 | 57.65813 | 12.23708 | 1346 ft | 135 kts | 27° |
| 2026-05-06 18:36 | 57.66618 | 12.24578 | 1292 ft | 130 kts | 25° |
| 2026-05-06 18:36 | 57.67384 | 12.25403 | 1246 ft | 128 kts | 26° |
| 2026-05-06 18:37 | 57.68159 | 12.26296 | 1150 ft | 129 kts | 28° |
| 2026-05-06 18:37 | 57.68665 | 12.26878 | 1102 ft | 130 kts | 26° |
| 2026-05-06 18:37 | 57.69722 | 12.28046 | 1046 ft | 133 kts | 27° |
| 2026-05-06 18:37 | 57.70355 | 12.29167 | 1038 ft | 127 kts | 69° |
| 2026-05-06 18:38 | 57.70130 | 12.30681 | 874 ft | 124 kts | 147° |
| 2026-05-06 18:38 | 57.69394 | 12.30826 | 804 ft | 104 kts | 199° |
| 2026-05-06 18:38 | 57.68743 | 12.30251 | 719 ft | 103 kts | 213° |
| 2026-05-06 18:38 | 57.68095 | 12.29658 | 651 ft | 106 kts | 212° |
| 2026-05-06 18:39 | 57.67432 | 12.29038 | 528 ft | 104 kts | 211° |
| 2026-05-06 18:39 | 57.66819 | 12.28468 | 507 ft | 97 kts | 207° |
| 2026-05-06 18:39 | 57.66170 | 12.27881 | 509 ft | 111 kts | 205° |
| 2026-05-06 18:40 | 57.64670 | 12.26501 | 705 ft | 129 kts | 218° |
| 2026-05-06 18:40 | 57.64289 | 12.25090 | 902 ft | 129 kts | 278° |
| 2026-05-06 18:40 | 57.64801 | 12.23806 | 1054 ft | 132 kts | 338° |
| 2026-05-06 18:40 | 57.65693 | 12.23977 | 1263 ft | 136 kts | 25° |
| 2026-05-06 18:41 | 57.66522 | 12.24785 | 1383 ft | 129 kts | 24° |
| 2026-05-06 18:41 | 57.67326 | 12.25537 | 1388 ft | 131 kts | 24° |
| 2026-05-06 18:41 | 57.68131 | 12.26371 | 1360 ft | 131 kts | 25° |
| 2026-05-06 18:41 | 57.68937 | 12.27143 | 1396 ft | 129 kts | 19° |
| 2026-05-06 18:42 | 57.69744 | 12.27857 | 1400 ft | 128 kts | 22° |
| 2026-05-06 18:42 | 57.70553 | 12.28577 | 1359 ft | 130 kts | 20° |
| 2026-05-06 18:42 | 57.71379 | 12.29272 | 1336 ft | 130 kts | 22° |
| 2026-05-06 18:42 | 57.72189 | 12.30004 | 1349 ft | 128 kts | 22° |
| 2026-05-06 18:43 | 57.72984 | 12.30739 | 1357 ft | 127 kts | 22° |
| 2026-05-06 18:43 | 57.73789 | 12.31401 | 1339 ft | 126 kts | 17° |
| 2026-05-06 18:43 | 57.74616 | 12.31912 | 1284 ft | 127 kts | 15° |
| 2026-05-06 18:43 | 57.75471 | 12.32151 | 1192 ft | 126 kts | 346° |
| 2026-05-06 18:44 | 57.76203 | 12.31209 | 1112 ft | 132 kts | 307° |
| 2026-05-06 18:44 | 57.76678 | 12.29776 | 1166 ft | 127 kts | 301° |
| 2026-05-06 18:44 | 57.77097 | 12.28327 | 1199 ft | 126 kts | 299° |
| 2026-05-06 18:44 | 57.77503 | 12.26856 | 1202 ft | 128 kts | 295° |
| 2026-05-06 18:45 | 57.77695 | 12.25212 | 1087 ft | 134 kts | 269° |
| 2026-05-06 18:45 | 57.77510 | 12.23503 | 1056 ft | 133 kts | 256° |
| 2026-05-06 18:45 | 57.77205 | 12.21845 | 1042 ft | 131 kts | 259° |
| 2026-05-06 18:45 | 57.77188 | 12.20739 | 1090 ft | 124 kts | 283° |
| 2026-05-06 18:46 | 57.77821 | 12.18984 | 1036 ft | 128 kts | 318° |
| 2026-05-06 18:46 | 57.78474 | 12.17888 | 1182 ft | 123 kts | 316° |
| 2026-05-06 18:46 | 57.79067 | 12.16719 | 1236 ft | 124 kts | 313° |
| 2026-05-06 18:46 | 57.79607 | 12.15509 | 1319 ft | 121 kts | 309° |
| 2026-05-06 18:47 | 57.80108 | 12.14212 | 1285 ft | 125 kts | 303° |
| 2026-05-06 18:47 | 57.80564 | 12.12809 | 1279 ft | 124 kts | 302° |
| 2026-05-06 18:47 | 57.81013 | 12.11431 | 1260 ft | 125 kts | 304° |
| 2026-05-06 18:47 | 57.81593 | 12.10239 | 1277 ft | 123 kts | 323° |
| 2026-05-06 18:48 | 57.82351 | 12.09577 | 1441 ft | 123 kts | 340° |
| 2026-05-06 18:48 | 57.83195 | 12.09175 | 1627 ft | 124 kts | 344° |
| 2026-05-06 18:48 | 57.84048 | 12.08798 | 1857 ft | 127 kts | 342° |
| 2026-05-06 18:48 | 57.84908 | 12.08464 | 2143 ft | 127 kts | 350° |
| 2026-05-06 18:49 | 57.85792 | 12.08317 | 2453 ft | 126 kts | 351° |
| 2026-05-06 18:49 | 57.86677 | 12.08141 | 2707 ft | 132 kts | 354° |
| 2026-05-06 18:49 | 57.87599 | 12.08429 | 2950 ft | 138 kts | 12° |
| 2026-05-06 18:49 | 57.88545 | 12.08967 | 3051 ft | 140 kts | 12° |
| 2026-05-06 18:50 | 57.89507 | 12.09492 | 2981 ft | 144 kts | 13° |
| 2026-05-06 18:50 | 57.90442 | 12.10050 | 2925 ft | 145 kts | 18° |
| 2026-05-06 18:50 | 57.91388 | 12.10688 | 2945 ft | 143 kts | 16° |
| 2026-05-06 18:50 | 57.92346 | 12.11280 | 2939 ft | 149 kts | 16° |
| 2026-05-06 18:51 | 57.93330 | 12.11890 | 2942 ft | 150 kts | 16° |
| 2026-05-06 18:51 | 57.94321 | 12.12542 | 2929 ft | 150 kts | 18° |
| 2026-05-06 18:51 | 57.94968 | 12.12973 | 2957 ft | 148 kts | 18° |
| 2026-05-06 18:51 | 57.96261 | 12.13913 | 2966 ft | 148 kts | 19° |
| 2026-05-06 18:52 | 57.96904 | 12.14318 | 2972 ft | 149 kts | 14° |
| 2026-05-06 18:52 | 57.97904 | 12.14908 | 2916 ft | 151 kts | 15° |
| 2026-05-06 18:52 | 57.99222 | 12.15633 | 2964 ft | 147 kts | 14° |
| 2026-05-06 18:52 | 58.00213 | 12.16185 | 2925 ft | 149 kts | 14° |
| 2026-05-06 18:53 | 58.00877 | 12.16563 | 2960 ft | 147 kts | 14° |
| 2026-05-06 18:53 | 58.01856 | 12.17089 | 2986 ft | 147 kts | 12° |
| 2026-05-06 18:53 | 58.02840 | 12.17671 | 2956 ft | 148 kts | 18° |
| 2026-05-06 18:53 | 58.03814 | 12.18326 | 2931 ft | 149 kts | 18° |
| 2026-05-06 18:54 | 58.04792 | 12.19017 | 2873 ft | 150 kts | 17° |
| 2026-05-06 18:54 | 58.05755 | 12.19710 | 2892 ft | 148 kts | 20° |
| 2026-05-06 18:54 | 58.06697 | 12.20461 | 2892 ft | 148 kts | 20° |
| 2026-05-06 18:54 | 58.07651 | 12.21190 | 2898 ft | 148 kts | 20° |
| 2026-05-06 18:55 | 58.08595 | 12.21926 | 2942 ft | 146 kts | 18° |
| 2026-05-06 18:55 | 58.09561 | 12.22539 | 2943 ft | 146 kts | 17° |
| 2026-05-06 18:55 | 58.10515 | 12.23187 | 2954 ft | 147 kts | 17° |
| 2026-05-06 18:55 | 58.11476 | 12.23902 | 2926 ft | 148 kts | 22° |
| 2026-05-06 18:56 | 58.12420 | 12.24686 | 2933 ft | 149 kts | 21° |
| 2026-05-06 18:56 | 58.13383 | 12.25408 | 2929 ft | 149 kts | 18° |
| 2026-05-06 18:56 | 58.14348 | 12.26129 | 2923 ft | 149 kts | 20° |
| 2026-05-06 18:56 | 58.15318 | 12.26824 | 2891 ft | 150 kts | 16° |